• Join FlightAware (Why Join?)
  • Login
  • US Flag 
03:09AM EDT


 

Airport Tracker/Info


-or-


 

Live Flight TrackerFlight Track Log ✈ ASQ4142 ✈ 30-Apr-2012 ✈ KIAH - KHRL

Flight Track Log - Related Links

Times and Time Zones

All times are in EDT time to prevent confusion due to time zone crossing. See the ASQ4142 flight status page for this flight to view local times or setup timezone preferences in your user account.

Time Position Orientation Groundspeed Altitude Reporting Facility
EDT Latitude Longitude Course Direction KTS MPH feet Rate Location/Type
04:28PM 29.9622 -95.3458 126° Southeast 139 160 800  Level Houston Center
04:29PM 29.9422 -95.3139 121° Southeast 180 207 1,900 1,560 Climbing Houston Center
04:30PM 29.8967 -95.2261 151° Southeast 248 285 4,000 1,080 Climbing Houston Center
04:31PM 29.8575 -95.2008 155° Southeast 244 281 4,100 1,560 Climbing Houston Center
04:32PM 29.7958 -95.1675 153° Southeast 244 281 6,600 2,340 Climbing Houston Center
04:33PM 29.7322 -95.1294 168° South 260 299 8,800 1,800 Climbing Houston Center
04:34PM 29.6678 -95.1131 209° Southwest 280 322 10,300 1,140 Climbing Houston Center
04:35PM 29.5808 -95.1675 204° Southwest 280 322 11,100 960 Climbing Houston Center
04:36PM 29.4983 -95.2100 205° Southwest 323 372 12,300 1,260 Climbing Houston Center
04:37PM 29.4094 -95.2569 205° Southwest 346 398 13,700 1,440 Climbing Houston Center
04:38PM 29.3206 -95.3042 214° Southwest 357 411 15,200 1,380 Climbing Houston Center
04:39PM 29.2372 -95.3678 215° Southwest 357 411 16,500 1,200 Climbing Houston Center
04:40PM 29.1542 -95.4339 214° Southwest 362 417 17,700 1,140 Climbing Houston Center
04:41PM 29.0686 -95.4997 215° Southwest 367 422 18,800 1,140 Climbing Houston Center
04:42PM 28.9856 -95.5656 214° Southwest 367 422 20,000 1,200 Climbing Houston Center
04:43PM 28.8978 -95.6333 214° Southwest 372 428 21,200 1,140 Climbing Houston Center
04:44PM 28.8103 -95.7011 214° Southwest 377 434 22,300 1,140 Climbing Houston Center
04:45PM 28.7164 -95.7733 213° Southwest 382 440 23,500 1,200 Climbing Houston Center
04:46PM 28.6286 -95.8386 215° Southwest 382 440 24,700 1,200 Climbing Houston Center
04:47PM 28.5408 -95.9086 216° Southwest 382 440 25,900 1,200 Climbing Houston Center
04:48PM 28.4553 -95.9783 214° Southwest 382 440 27,100 1,020 Climbing Houston Center
04:49PM 28.3675 -96.0456 214° Southwest 387 445 28,000 420 Climbing Houston Center
04:50PM 28.2753 -96.1175 212° Southwest 392 451 28,000  Level Houston Center
04:51PM 28.1983 -96.1731 215° Southwest 405 466 28,000  Level Houston Center
04:52PM 28.0956 -96.2536 214° Southwest 412 474 28,000  Level Houston Center
04:53PM 27.9947 -96.3317 214° Southwest 426 490 28,000  Level Houston Center
04:54PM 27.8942 -96.4072 215° Southwest 437 503 28,000  Level Houston Center
04:55PM 27.7953 -96.4850 215° Southwest 442 509 28,000  Level Houston Center
04:56PM 27.6944 -96.5650 213° Southwest 442 509 28,000  Level Houston Center
04:57PM 27.5936 -96.6400 213° Southwest 442 509 28,000 -360 Level Houston Center
04:58PM 27.4928 -96.7150 213° Southwest 442 509 27,300 -1,380 Descending Houston Center
04:59PM 27.3919 -96.7878 214° Southwest 442 509 25,300 -2,100 Descending Houston Center
05:00PM 27.2908 -96.8647 213° Southwest 448 516 23,200 -2,100 Descending Houston Center
05:01PM 27.1900 -96.9369 214° Southwest 443 510 21,200 -2,040 Descending Houston Center
05:02PM 27.0953 -97.0094 213° Southwest 430 495 19,200 -2,040 Descending Houston Center
05:03PM 27.0031 -97.0772 214° Southwest 424 488 17,200 -1,620 Descending Houston Center
05:04PM 26.9039 -97.1517 220° Southwest 412 474 16,000 -720 Descending Houston Center
05:04PM 26.8453 -97.2069 223° Southwest 365 420 16,000 -420 Level Houston Center
05:05PM 26.7778 -97.2778 214° Southwest 388 447 15,400 -1,560 Descending Houston Center
05:06PM 26.6897 -97.3433 216° Southwest 355 409 13,100 -2,280 Descending Houston Center
05:07PM 26.6139 -97.4044 216° Southwest 339 390 10,800 -1,980 Descending Houston Center
05:08PM 26.5492 -97.4567 218° Southwest 302 348 9,300 -2,040 Descending Houston Center
05:09PM 26.4908 -97.5069 220° Southwest 278 320 6,900 -2,340 Descending Houston Center
05:10PM 26.4342 -97.5597 223° Southwest 256 295 4,700 -2,040 Descending Houston Center
05:11PM 26.3839 -97.6128 220° Southwest 252 290 2,800 -1,380 Descending Houston Center
05:12PM 26.3339 -97.6589 222° Southwest 237 273 2,000 -600 Descending Houston Center
05:13PM 26.2947 -97.6983 184° South 207 238 1,700 -480 Descending Houston Center
05:14PM 26.2611 -97.7011 135° Southeast 131 151 1,100 -660 Descending Houston Center
05:15PM 26.2394 -97.6769 135° Southeast 118 136 400 -720 Descending Houston Center